Time;durP1;ratioP1;P1;durP2;ratioP2;P2;SDS_P1;SDS_P2;PMS_P1;PMS_P2;Temp;Humidity;BMP_temperature;BMP_pressure;BME280_temperature;BME280_humidity;BME280_pressure;Samples;Min_cycle;Max_cycle;Signal;HPM_P1;HPM_P2
2023/01/22 00:01:15;;;;;;;11.32;8.48;;;1.60;99.90;;;;;;5091149;28;20027;-55
2023/01/22 00:04:01;;;;;;;10.43;8.07;;;1.60;99.90;;;;;;5087127;28;20034;-56
2023/01/22 00:06:47;;;;;;;9.73;7.60;;;1.60;99.90;;;;;;5073476;28;20029;-53
2023/01/22 00:09:33;;;;;;;10.38;8.23;;;1.60;99.90;;;;;;5057350;28;20067;-54
2023/01/22 00:12:19;;;;;;;9.27;7.43;;;1.50;99.90;;;;;;5074686;28;20024;-57
2023/01/22 00:15:05;;;;;;;8.90;7.38;;;1.60;99.90;;;;;;5071826;28;20063;-49
2023/01/22 00:17:52;;;;;;;10.57;7.95;;;1.60;99.90;;;;;;5073042;28;20024;-56
2023/01/22 00:20:38;;;;;;;8.55;7.22;;;1.60;99.90;;;;;;5057156;28;20025;-55
2023/01/22 00:23:25;;;;;;;8.88;7.05;;;1.60;99.90;;;;;;5064996;28;20024;-55
2023/01/22 00:26:14;;;;;;;9.32;7.07;;;1.60;99.90;;;;;;5071167;28;20135;-54
2023/01/22 00:29:00;;;;;;;9.82;7.85;;;1.60;99.90;;;;;;5072675;28;20370;-56
2023/01/22 00:31:46;;;;;;;7.55;6.63;;;1.60;99.90;;;;;;5070409;28;20031;-54
2023/01/22 00:34:31;;;;;;;11.48;7.93;;;1.60;99.90;;;;;;5071403;28;20071;-55
2023/01/22 00:37:19;;;;;;;9.13;6.97;;;1.60;99.90;;;;;;5074248;28;20060;-51
2023/01/22 00:40:05;;;;;;;9.18;7.20;;;1.50;99.90;;;;;;5105902;28;20404;-52
2023/01/22 00:42:51;;;;;;;9.25;7.85;;;1.50;99.90;;;;;;5106936;28;20089;-56
2023/01/22 00:45:37;;;;;;;8.70;7.40;;;1.50;99.90;;;;;;5090057;28;20111;-53
2023/01/22 00:48:23;;;;;;;10.10;7.57;;;1.50;99.90;;;;;;5106742;28;20028;-51
2023/01/22 00:51:09;;;;;;;9.60;7.85;;;1.50;99.90;;;;;;5097638;28;20036;-53
2023/01/22 00:53:55;;;;;;;9.70;7.05;;;1.50;99.90;;;;;;5095073;28;20412;-49
2023/01/22 00:56:41;;;;;;;9.13;7.15;;;1.50;99.90;;;;;;5085271;28;20032;-52
2023/01/22 00:59:27;;;;;;;8.45;6.95;;;1.50;99.90;;;;;;5091817;28;20036;-53
2023/01/22 01:02:13;;;;;;;8.93;7.15;;;1.50;99.90;;;;;;5093240;28;20523;-56
2023/01/22 01:05:02;;;;;;;8.77;7.00;;;1.50;99.90;;;;;;5082956;28;20036;-56
2023/01/22 01:07:48;;;;;;;8.32;7.18;;;1.50;99.90;;;;;;5067500;28;20104;-56
2023/01/22 01:10:34;;;;;;;9.63;7.40;;;1.60;99.90;;;;;;5069415;28;20028;-57
2023/01/22 01:13:20;;;;;;;8.23;7.40;;;1.60;99.90;;;;;;5072579;28;20647;-54
2023/01/22 01:16:10;;;;;;;8.32;7.05;;;1.60;99.90;;;;;;5069970;28;20450;-52
2023/01/22 01:19:03;;;;;;;9.10;7.63;;;1.50;99.90;;;;;;5052899;28;20405;-56
2023/01/22 01:21:49;;;;;;;12.70;7.90;;;1.60;99.90;;;;;;5069481;28;20012;-55
2023/01/22 01:24:35;;;;;;;10.30;8.10;;;1.60;99.90;;;;;;5069190;28;20107;-56
2023/01/22 01:27:21;;;;;;;8.60;7.28;;;1.60;99.90;;;;;;5071294;28;20028;-56
2023/01/22 01:30:08;;;;;;;10.98;8.25;;;1.60;99.90;;;;;;5054621;28;20047;-57
2023/01/22 01:32:53;;;;;;;9.63;7.65;;;1.60;99.90;;;;;;5055072;28;20033;-56
2023/01/22 01:35:40;;;;;;;9.68;7.47;;;1.60;99.90;;;;;;5069965;28;20029;-55
2023/01/22 01:38:26;;;;;;;9.68;8.07;;;1.50;99.90;;;;;;5055641;28;20016;-55
2023/01/22 01:41:15;;;;;;;9.93;8.27;;;1.60;99.90;;;;;;5069694;28;20057;-55
2023/01/22 01:44:11;;;;;;;9.27;7.72;;;1.60;99.90;;;;;;5055830;28;20039;-54
2023/01/22 01:47:04;;;;;;;10.48;8.88;;;1.70;99.90;;;;;;5070587;28;20035;-54
2023/01/22 01:49:52;;;;;;;11.50;7.72;;;1.60;99.90;;;;;;5069390;28;20503;-52
2023/01/22 01:52:38;;;;;;;10.35;8.48;;;1.70;99.90;;;;;;5070667;28;20113;-54
2023/01/22 01:55:28;;;;;;;12.88;9.90;;;1.70;99.90;;;;;;5070046;28;20025;-54
2023/01/22 01:58:20;;;;;;;13.63;8.80;;;1.70;99.90;;;;;;5055243;28;20506;-57
2023/01/22 02:01:11;;;;;;;11.40;9.35;;;1.60;99.90;;;;;;5071656;28;20036;-54
2023/01/22 02:03:59;;;;;;;10.85;8.90;;;1.70;99.90;;;;;;5069880;28;20013;-58
2023/01/22 02:06:45;;;;;;;10.70;8.73;;;1.60;99.90;;;;;;5055191;28;20025;-51
2023/01/22 02:09:31;;;;;;;11.48;9.10;;;1.70;99.90;;;;;;5067556;28;20025;-54
2023/01/22 02:12:17;;;;;;;10.50;8.50;;;1.70;99.90;;;;;;5079739;28;20107;-50
2023/01/22 02:15:04;;;;;;;11.60;8.93;;;1.80;99.90;;;;;;5070120;28;20554;-57
2023/01/22 02:17:50;;;;;;;11.63;8.85;;;1.70;99.90;;;;;;5070206;28;20108;-52
2023/01/22 02:20:37;;;;;;;12.38;9.48;;;1.70;99.90;;;;;;5066174;28;20039;-55
2023/01/22 02:23:24;;;;;;;11.20;9.13;;;1.80;99.90;;;;;;5070800;28;20504;-56
2023/01/22 02:26:10;;;;;;;12.50;9.30;;;1.80;99.90;;;;;;5070137;28;20041;-55
2023/01/22 02:28:56;;;;;;;10.88;8.90;;;1.70;99.90;;;;;;5070858;28;20036;-56
2023/01/22 02:31:42;;;;;;;13.88;9.73;;;1.70;99.90;;;;;;5046592;28;20029;-55
2023/01/22 02:34:28;;;;;;;11.38;9.48;;;1.80;99.90;;;;;;5072526;28;20028;-55
2023/01/22 02:37:13;;;;;;;11.93;8.90;;;1.80;99.90;;;;;;5070857;28;20029;-55
2023/01/22 02:39:59;;;;;;;10.77;9.15;;;1.70;99.90;;;;;;5071160;28;20091;-57
2023/01/22 02:42:45;;;;;;;11.38;9.23;;;1.70;99.90;;;;;;5070607;28;20236;-55
2023/01/22 02:45:31;;;;;;;12.20;9.48;;;1.80;99.90;;;;;;5070092;28;20035;-51
2023/01/22 02:48:17;;;;;;;10.43;9.00;;;1.80;99.90;;;;;;5071288;28;20024;-51
2023/01/22 02:51:04;;;;;;;10.70;9.32;;;1.80;99.90;;;;;;5071096;28;20488;-56
2023/01/22 02:53:50;;;;;;;11.40;9.90;;;1.80;99.90;;;;;;5066373;28;20075;-55
2023/01/22 02:56:36;;;;;;;11.20;9.32;;;1.80;99.90;;;;;;5066991;28;20033;-56
2023/01/22 02:59:22;;;;;;;10.93;9.07;;;1.80;99.90;;;;;;5054638;28;20029;-55
2023/01/22 03:02:08;;;;;;;10.90;8.98;;;1.80;99.90;;;;;;5070007;28;20447;-55
2023/01/22 03:05:02;;;;;;;11.23;9.18;;;1.80;99.90;;;;;;5070491;28;20610;-57
2023/01/22 03:07:49;;;;;;;13.82;9.80;;;1.80;99.90;;;;;;5070151;28;20031;-57
2023/01/22 03:10:35;;;;;;;11.85;9.60;;;1.80;99.90;;;;;;5071453;28;20428;-58
2023/01/22 03:22:34;;;;;;;12.43;9.77;;;1.80;99.90;;;;;;5072568;28;20028;-56
2023/01/22 03:25:20;;;;;;;12.45;9.80;;;1.80;99.90;;;;;;5063899;28;20024;-55
2023/01/22 03:28:15;;;;;;;11.70;9.65;;;1.80;99.90;;;;;;5058918;28;20519;-55
2023/01/22 03:31:01;;;;;;;13.50;9.35;;;1.70;99.90;;;;;;5059425;28;20082;-57
2023/01/22 03:33:47;;;;;;;11.23;9.65;;;1.80;99.90;;;;;;5070348;28;20024;-57
2023/01/22 03:36:33;;;;;;;12.82;10.55;;;1.80;99.90;;;;;;5069437;28;20728;-56
2023/01/22 03:39:19;;;;;;;11.88;9.85;;;1.80;99.90;;;;;;5073697;28;20039;-56
2023/01/22 03:42:05;;;;;;;12.95;10.38;;;1.70;99.90;;;;;;5074457;28;20070;-51
2023/01/22 03:44:51;;;;;;;15.05;9.70;;;1.80;99.90;;;;;;5069971;28;20025;-58
2023/01/22 03:47:37;;;;;;;11.40;8.80;;;1.80;99.90;;;;;;5043722;28;20040;-57
2023/01/22 03:50:23;;;;;;;13.13;9.75;;;1.80;99.90;;;;;;5073026;28;20032;-57
2023/01/22 03:53:09;;;;;;;15.73;9.73;;;1.80;99.90;;;;;;5073983;28;20044;-55
2023/01/22 03:56:03;;;;;;;12.00;10.07;;;1.80;99.90;;;;;;5057240;28;20103;-57
2023/01/22 03:58:49;;;;;;;12.00;9.40;;;1.90;99.90;;;;;;5073064;28;20518;-55
2023/01/22 04:01:36;;;;;;;13.38;9.52;;;1.90;99.90;;;;;;5058474;28;20424;-51
2023/01/22 04:04:22;;;;;;;14.32;11.07;;;1.80;99.90;;;;;;5072908;28;20028;-54
2023/01/22 04:07:08;;;;;;;13.18;9.70;;;1.90;99.90;;;;;;5043716;28;20170;-49
2023/01/22 04:09:54;;;;;;;12.98;9.05;;;1.90;99.90;;;;;;5072614;28;20032;-53
2023/01/22 04:12:40;;;;;;;11.88;9.80;;;1.90;99.90;;;;;;5070148;28;20025;-53
2023/01/22 04:15:26;;;;;;;12.40;9.52;;;1.80;99.90;;;;;;5052990;28;20120;-58
2023/01/22 04:18:12;;;;;;;14.00;10.38;;;1.90;99.90;;;;;;5053141;28;20029;-52
2023/01/22 04:20:58;;;;;;;12.20;10.32;;;1.90;99.90;;;;;;5053081;28;20094;-56
2023/01/22 04:23:44;;;;;;;12.55;9.35;;;1.90;99.90;;;;;;5053035;28;20493;-50
2023/01/22 04:26:30;;;;;;;13.48;10.18;;;1.90;99.90;;;;;;5052177;28;20071;-54
2023/01/22 04:29:16;;;;;;;12.55;10.23;;;1.90;99.90;;;;;;5055619;28;20032;-57
2023/01/22 04:32:02;;;;;;;12.23;9.98;;;1.90;99.90;;;;;;5071397;28;20028;-54
2023/01/22 04:34:47;;;;;;;11.25;10.05;;;1.90;99.90;;;;;;5072723;28;20038;-54
2023/01/22 04:37:33;;;;;;;12.98;9.77;;;1.90;99.90;;;;;;5072639;28;20032;-54
2023/01/22 04:40:20;;;;;;;12.55;9.50;;;1.80;99.90;;;;;;5057593;28;20497;-51
2023/01/22 04:43:08;;;;;;;13.25;10.30;;;1.80;99.90;;;;;;5071035;28;20024;-53
2023/01/22 04:45:54;;;;;;;12.27;9.68;;;1.80;99.90;;;;;;5071979;28;20060;-53
2023/01/22 04:48:40;;;;;;;16.40;9.65;;;1.80;99.90;;;;;;5071129;28;20074;-56
2023/01/22 04:51:26;;;;;;;13.23;10.52;;;1.80;99.90;;;;;;5072161;28;20090;-54
2023/01/22 04:54:12;;;;;;;13.07;10.38;;;1.80;99.90;;;;;;5072050;28;20029;-51
2023/01/22 04:56:58;;;;;;;13.10;9.93;;;1.90;99.90;;;;;;5068368;28;20043;-53
2023/01/22 04:59:44;;;;;;;13.88;10.50;;;1.90;99.90;;;;;;5072478;28;20027;-53
2023/01/22 05:02:29;;;;;;;14.75;10.38;;;1.90;99.90;;;;;;5072434;28;20135;-54
2023/01/22 05:05:16;;;;;;;13.27;10.48;;;1.90;99.90;;;;;;5071555;28;20016;-54
2023/01/22 05:08:02;;;;;;;13.82;9.90;;;1.90;99.90;;;;;;5071425;28;20025;-56
2023/01/22 05:10:48;;;;;;;12.73;10.13;;;1.90;99.90;;;;;;5071830;28;20357;-59
2023/01/22 05:13:34;;;;;;;13.60;10.13;;;1.80;99.90;;;;;;5072173;28;20020;-57
2023/01/22 05:16:20;;;;;;;13.27;10.52;;;1.90;99.90;;;;;;5069999;28;20060;-58
2023/01/22 05:19:06;;;;;;;12.45;9.82;;;1.90;99.90;;;;;;5070936;28;20029;-55
2023/01/22 05:21:52;;;;;;;12.02;9.73;;;1.90;99.90;;;;;;5071594;28;20021;-52
2023/01/22 05:24:38;;;;;;;15.65;11.30;;;1.90;99.90;;;;;;5071278;28;20056;-54
2023/01/22 05:27:24;;;;;;;13.25;10.13;;;1.80;99.90;;;;;;5070694;28;20039;-57
2023/01/22 05:30:11;;;;;;;14.55;10.70;;;2.00;99.90;;;;;;5067937;28;20035;-56
2023/01/22 05:32:57;;;;;;;14.45;9.68;;;2.00;99.90;;;;;;5072901;28;20111;-57
2023/01/22 05:35:43;;;;;;;14.07;9.93;;;1.90;99.90;;;;;;5072264;28;20438;-57
2023/01/22 05:38:29;;;;;;;12.82;9.95;;;1.80;99.90;;;;;;5051371;28;20025;-56
2023/01/22 05:41:15;;;;;;;12.80;10.65;;;1.90;99.90;;;;;;5050726;28;20018;-53
2023/01/22 05:44:02;;;;;;;14.30;10.13;;;1.90;99.90;;;;;;5049834;28;20090;-59
2023/01/22 05:46:48;;;;;;;13.95;10.82;;;1.90;99.90;;;;;;5050526;28;20029;-54
2023/01/22 05:49:34;;;;;;;13.07;11.00;;;1.90;99.90;;;;;;5050476;28;20040;-55
2023/01/22 05:52:20;;;;;;;13.48;10.13;;;1.90;99.90;;;;;;5050489;28;20036;-56
2023/01/22 05:55:06;;;;;;;15.00;10.75;;;1.90;99.90;;;;;;5058652;28;20111;-54
2023/01/22 05:57:52;;;;;;;15.40;10.88;;;1.90;99.90;;;;;;5062599;28;20035;-54
2023/01/22 06:00:38;;;;;;;13.50;10.23;;;1.90;99.90;;;;;;5070070;28;20021;-54
2023/01/22 06:03:24;;;;;;;12.70;10.13;;;1.90;99.90;;;;;;5070440;28;20028;-58
2023/01/22 06:06:13;;;;;;;11.85;10.07;;;1.90;99.90;;;;;;5070084;28;20024;-57
2023/01/22 06:08:59;;;;;;;12.25;10.77;;;1.90;99.90;;;;;;5070450;28;20052;-55
2023/01/22 06:11:45;;;;;;;13.55;11.35;;;1.80;99.90;;;;;;5070566;28;20033;-55
2023/01/22 06:14:31;;;;;;;13.50;10.60;;;1.90;99.90;;;;;;5070418;28;20032;-58
2023/01/22 06:17:17;;;;;;;13.02;10.75;;;1.90;99.90;;;;;;5069672;28;20035;-56
2023/01/22 06:20:04;;;;;;;14.40;11.40;;;1.90;99.90;;;;;;5051142;28;20029;-56
2023/01/22 06:22:50;;;;;;;14.20;10.82;;;1.90;99.90;;;;;;5058645;28;20024;-58
2023/01/22 06:25:36;;;;;;;13.43;10.98;;;1.90;99.90;;;;;;5069186;28;20036;-52
2023/01/22 06:28:23;;;;;;;14.27;11.13;;;1.90;99.90;;;;;;5069162;28;20032;-57
2023/01/22 06:31:09;;;;;;;14.90;12.05;;;1.90;99.90;;;;;;5070090;28;20039;-57
2023/01/22 06:33:55;;;;;;;12.27;10.95;;;1.90;99.90;;;;;;5069159;28;20032;-56
2023/01/22 06:36:41;;;;;;;17.40;12.75;;;1.90;99.90;;;;;;5069451;28;20047;-56
2023/01/22 06:39:27;;;;;;;13.35;10.57;;;1.90;99.90;;;;;;5071307;28;20033;-57
2023/01/22 06:42:12;;;;;;;14.15;11.27;;;1.90;99.90;;;;;;5071049;28;20028;-55
2023/01/22 06:44:58;;;;;;;13.75;11.18;;;1.80;99.90;;;;;;5050030;28;20025;-53
2023/01/22 06:47:45;;;;;;;15.80;10.88;;;1.80;99.90;;;;;;5069495;28;20040;-54
2023/01/22 06:50:31;;;;;;;14.73;11.73;;;1.80;99.90;;;;;;5070109;28;20385;-52
2023/01/22 06:53:17;;;;;;;14.75;11.18;;;1.80;99.90;;;;;;5069670;28;20550;-54
2023/01/22 06:56:03;;;;;;;15.10;12.02;;;1.90;99.90;;;;;;5066506;28;20036;-57
2023/01/22 06:58:49;;;;;;;14.10;11.50;;;1.80;99.90;;;;;;5048379;28;20523;-49
2023/01/22 07:01:36;;;;;;;13.70;11.52;;;1.80;99.90;;;;;;5056042;28;20571;-53
2023/01/22 07:04:22;;;;;;;14.98;11.68;;;1.90;99.90;;;;;;5061679;28;20083;-53
2023/01/22 07:07:08;;;;;;;14.75;11.02;;;1.80;99.90;;;;;;5068596;28;20025;-54
2023/01/22 07:09:54;;;;;;;14.63;11.20;;;1.90;99.90;;;;;;5069881;28;20024;-55
2023/01/22 07:12:40;;;;;;;14.88;11.57;;;1.90;99.90;;;;;;5071124;28;20086;-53
2023/01/22 07:15:26;;;;;;;15.60;11.98;;;1.90;99.90;;;;;;5072911;28;20028;-55
2023/01/22 07:18:13;;;;;;;18.02;13.27;;;1.90;99.90;;;;;;5073318;28;20047;-57
2023/01/22 07:21:03;;;;;;;15.82;12.57;;;1.80;99.90;;;;;;5039151;28;20036;-55
2023/01/22 07:23:49;;;;;;;15.77;12.15;;;1.80;99.90;;;;;;5072837;28;20639;-51
2023/01/22 07:26:37;;;;;;;13.82;11.85;;;1.80;99.90;;;;;;5071110;28;20027;-57
2023/01/22 07:29:23;;;;;;;14.98;11.68;;;1.90;99.90;;;;;;5072368;28;20037;-55
2023/01/22 07:32:09;;;;;;;16.63;12.52;;;1.80;99.90;;;;;;5065893;28;20111;-54
2023/01/22 07:34:55;;;;;;;14.82;11.63;;;1.80;99.90;;;;;;5072540;28;20404;-54
2023/01/22 07:37:41;;;;;;;16.85;11.55;;;1.80;99.90;;;;;;5058490;28;20037;-55
2023/01/22 07:40:27;;;;;;;14.80;11.57;;;1.90;99.90;;;;;;5039113;28;20083;-52
2023/01/22 07:43:14;;;;;;;16.90;12.68;;;1.90;99.90;;;;;;5057586;28;20033;-50
2023/01/22 07:46:01;;;;;;;18.83;14.38;;;1.90;99.90;;;;;;5069817;28;20068;-55
2023/01/22 07:48:47;;;;;;;23.05;15.95;;;1.90;99.90;;;;;;5071899;28;20033;-56
2023/01/22 07:51:33;;;;;;;17.48;12.80;;;1.80;99.90;;;;;;5071517;28;20519;-58
2023/01/22 07:54:19;;;;;;;17.15;13.52;;;1.80;99.90;;;;;;5069368;28;20068;-56
2023/01/22 07:57:05;;;;;;;17.73;13.52;;;1.90;99.90;;;;;;5071970;28;20059;-55
2023/01/22 07:59:51;;;;;;;17.92;13.30;;;1.90;99.90;;;;;;5073072;28;20082;-56
2023/01/22 08:02:38;;;;;;;19.65;14.13;;;1.80;99.90;;;;;;5053400;28;20116;-58
2023/01/22 08:05:24;;;;;;;16.67;11.88;;;1.80;99.90;;;;;;5053583;28;20025;-55
2023/01/22 08:08:15;;;;;;;15.68;12.75;;;1.80;99.90;;;;;;5072098;28;20025;-53
2023/01/22 08:11:00;;;;;;;14.70;12.27;;;1.90;99.90;;;;;;5072575;28;20562;-56
2023/01/22 08:13:46;;;;;;;15.35;12.15;;;1.90;99.90;;;;;;5073775;28;20079;-55
2023/01/22 08:16:32;;;;;;;17.55;12.40;;;1.90;99.90;;;;;;5074310;28;20025;-53
2023/01/22 08:19:18;;;;;;;18.58;13.30;;;1.80;99.90;;;;;;5080690;28;20048;-56
2023/01/22 08:22:04;;;;;;;15.90;12.65;;;1.90;99.90;;;;;;5082652;28;20032;-56
2023/01/22 08:24:51;;;;;;;17.00;12.50;;;1.90;99.90;;;;;;5078649;28;20013;-53
2023/01/22 08:27:37;;;;;;;16.52;12.02;;;1.90;99.90;;;;;;5075823;28;20024;-53
2023/01/22 08:30:23;;;;;;;15.48;12.23;;;1.90;99.90;;;;;;5075024;28;20032;-59
2023/01/22 08:33:09;;;;;;;16.55;11.52;;;1.90;99.90;;;;;;5080438;28;20154;-56
2023/01/22 08:35:55;;;;;;;16.02;12.25;;;1.90;99.90;;;;;;5059173;28;20025;-53
2023/01/22 08:38:41;;;;;;;16.50;12.02;;;2.00;99.90;;;;;;5074170;28;20146;-56
2023/01/22 08:41:27;;;;;;;15.07;12.13;;;2.00;99.90;;;;;;5057835;28;20032;-54
2023/01/22 08:44:13;;;;;;;15.40;11.93;;;1.90;99.90;;;;;;5071633;28;20025;-56
2023/01/22 08:47:01;;;;;;;16.58;12.23;;;1.90;99.90;;;;;;5071365;28;20758;-57
2023/01/22 08:49:47;;;;;;;16.92;12.00;;;1.90;99.90;;;;;;5071819;28;20024;-58
2023/01/22 08:52:33;;;;;;;15.27;12.15;;;1.90;99.90;;;;;;5071770;28;20021;-54
2023/01/22 08:55:22;;;;;;;15.73;12.35;;;1.90;99.90;;;;;;5064786;28;20028;-58
2023/01/22 08:58:08;;;;;;;14.98;11.88;;;2.00;99.90;;;;;;5070692;28;20059;-57
2023/01/22 09:00:54;;;;;;;17.65;12.35;;;2.00;99.90;;;;;;5072550;28;20081;-53
2023/01/22 09:03:40;;;;;;;16.63;12.32;;;1.90;99.90;;;;;;5078645;28;20031;-54
2023/01/22 09:06:26;;;;;;;16.33;12.38;;;2.00;99.90;;;;;;5057273;28;20440;-57
2023/01/22 09:09:12;;;;;;;15.10;11.82;;;2.00;99.90;;;;;;5057767;28;20539;-57
2023/01/22 09:11:58;;;;;;;15.45;11.80;;;2.00;99.90;;;;;;5058188;28;20620;-57
2023/01/22 09:14:47;;;;;;;16.80;11.95;;;2.00;99.90;;;;;;5055915;28;20029;-57
2023/01/22 09:17:33;;;;;;;17.67;12.77;;;2.00;99.90;;;;;;5050583;28;20110;-57
2023/01/22 09:20:19;;;;;;;15.43;11.50;;;2.00;99.90;;;;;;5057821;28;20445;-51
2023/01/22 09:23:06;;;;;;;15.85;11.65;;;2.00;99.90;;;;;;5065302;28;20422;-55
2023/01/22 09:25:55;;;;;;;18.38;12.18;;;2.00;99.90;;;;;;5097307;28;20027;-55
2023/01/22 09:28:42;;;;;;;16.08;12.38;;;2.10;99.90;;;;;;5062961;28;20063;-52
2023/01/22 09:31:28;;;;;;;18.58;12.75;;;2.00;99.90;;;;;;5068469;28;20496;-50
2023/01/22 09:34:14;;;;;;;14.73;11.40;;;2.00;99.90;;;;;;5060518;28;20032;-52
2023/01/22 09:37:04;;;;;;;15.48;11.63;;;1.90;99.90;;;;;;5071532;28;20029;-53
2023/01/22 09:39:52;;;;;;;16.20;12.00;;;2.00;99.90;;;;;;5076431;28;20029;-54
2023/01/22 09:42:39;;;;;;;15.52;11.77;;;2.10;99.90;;;;;;5093520;28;20573;-52
2023/01/22 09:45:26;;;;;;;16.05;12.35;;;2.10;99.90;;;;;;5080636;28;20031;-53
2023/01/22 09:48:16;;;;;;;17.52;12.63;;;2.10;99.90;;;;;;5080416;28;20031;-57
2023/01/22 09:51:04;;;;;;;17.65;13.73;;;2.10;99.90;;;;;;5069115;28;20500;-52
2023/01/22 09:53:56;;;;;;;16.52;13.25;;;2.10;99.90;;;;;;5054491;28;20435;-54
2023/01/22 09:56:45;;;;;;;17.25;12.95;;;2.10;99.90;;;;;;5070072;28;20031;-56
2023/01/22 09:59:37;;;;;;;16.90;13.23;;;2.20;99.90;;;;;;5078333;28;20012;-57
2023/01/22 10:02:39;;;;;;;16.05;12.70;;;2.20;99.90;;;;;;5068425;28;20032;-57
2023/01/22 10:05:39;;;;;;;18.15;13.30;;;2.10;99.90;;;;;;5051994;28;20020;-55
2023/01/22 10:08:32;;;;;;;16.45;13.55;;;2.10;99.90;;;;;;5070052;28;20096;-57
2023/01/22 10:11:21;;;;;;;19.10;13.75;;;2.00;99.90;;;;;;5070784;28;20032;-57
2023/01/22 10:14:14;;;;;;;19.42;14.15;;;2.00;99.90;;;;;;5071032;28;20035;-54
2023/01/22 10:17:02;;;;;;;19.95;14.82;;;2.00;99.90;;;;;;5068915;28;20021;-57
2023/01/22 10:19:55;;;;;;;16.50;12.80;;;2.10;99.90;;;;;;5074323;28;20421;-54
2023/01/22 10:22:41;;;;;;;16.58;13.05;;;2.00;99.90;;;;;;5067999;28;20035;-56
2023/01/22 10:25:27;;;;;;;20.20;13.63;;;2.10;99.90;;;;;;5055741;28;20031;-56
2023/01/22 10:28:14;;;;;;;19.38;14.02;;;2.00;99.90;;;;;;5053827;28;20392;-57
2023/01/22 10:31:00;;;;;;;19.38;14.18;;;2.00;99.90;;;;;;5068698;28;20099;-55
2023/01/22 10:33:46;;;;;;;20.40;14.38;;;2.00;99.90;;;;;;5067795;28;20082;-56
2023/01/22 10:36:32;;;;;;;20.88;14.05;;;2.00;99.90;;;;;;5052732;28;20025;-52
2023/01/22 10:39:19;;;;;;;20.60;14.27;;;2.00;99.90;;;;;;5070047;28;20017;-53
2023/01/22 10:42:05;;;;;;;20.92;15.38;;;2.10;99.90;;;;;;5069877;28;20050;-51
2023/01/22 10:45:10;;;;;;;20.45;14.32;;;2.00;99.90;;;;;;5072003;28;20024;-55
2023/01/22 10:48:15;;;;;;;21.83;15.53;;;2.10;99.90;;;;;;5069375;28;20029;-53
2023/01/22 10:51:11;;;;;;;24.73;15.35;;;2.10;99.90;;;;;;5062361;28;20734;-51
2023/01/22 10:53:58;;;;;;;24.42;15.65;;;2.10;99.90;;;;;;5068171;28;20027;-55
2023/01/22 10:56:44;;;;;;;18.08;14.30;;;2.10;99.90;;;;;;5065418;28;20035;-50
2023/01/22 10:59:32;;;;;;;19.73;13.98;;;2.10;99.90;;;;;;5069323;28;20113;-57
2023/01/22 11:02:22;;;;;;;20.90;14.57;;;2.10;99.90;;;;;;5069172;28;20025;-53
2023/01/22 11:05:21;;;;;;;17.80;13.68;;;2.20;99.90;;;;;;5071453;28;20100;-52
2023/01/22 11:08:15;;;;;;;20.30;14.38;;;2.20;99.90;;;;;;5069012;28;20442;-51
2023/01/22 11:11:06;;;;;;;25.65;17.15;;;2.20;99.90;;;;;;5068812;28;20079;-54
2023/01/22 11:14:16;;;;;;;20.02;14.32;;;2.20;99.90;;;;;;5068833;28;20023;-57
2023/01/22 11:17:19;;;;;;;20.25;15.00;;;2.30;99.90;;;;;;5074140;28;20036;-52
2023/01/22 11:20:31;;;;;;;20.67;15.18;;;2.20;99.90;;;;;;5069432;28;20042;-53
2023/01/22 11:23:29;;;;;;;27.02;18.00;;;2.30;99.90;;;;;;5069054;28;20041;-54
2023/01/22 11:26:47;;;;;;;20.17;14.80;;;2.30;99.90;;;;;;5068499;28;20028;-50
2023/01/22 11:29:51;;;;;;;21.55;14.75;;;2.30;99.90;;;;;;5067908;28;20017;-50
2023/01/22 11:33:10;;;;;;;17.80;13.95;;;2.30;99.90;;;;;;5067921;28;20035;-51
2023/01/22 11:36:25;;;;;;;20.40;14.02;;;2.40;99.90;;;;;;5068218;28;20020;-53
2023/01/22 11:39:18;;;;;;;16.83;13.38;;;2.40;99.90;;;;;;5056848;28;20104;-50
2023/01/22 11:42:25;;;;;;;19.67;14.52;;;2.40;99.90;;;;;;5066624;28;20366;-53
2023/01/22 11:45:33;;;;;;;18.65;14.07;;;2.40;99.90;;;;;;5067918;28;20017;-52
2023/01/22 11:48:25;;;;;;;18.25;14.07;;;2.40;99.90;;;;;;5068861;28;20021;-55
2023/01/22 11:51:38;;;;;;;17.33;13.43;;;2.30;99.90;;;;;;5069982;28;20013;-56
2023/01/22 11:54:52;;;;;;;20.30;14.98;;;2.30;99.90;;;;;;5066820;28;20078;-53
2023/01/22 11:57:43;;;;;;;19.58;14.27;;;2.30;99.90;;;;;;5076437;28;20046;-52
2023/01/22 12:01:20;;;;;;;17.27;13.27;;;2.30;99.90;;;;;;5093833;28;20020;-51
2023/01/22 12:04:42;;;;;;;22.35;14.27;;;2.30;99.90;;;;;;5077360;28;20024;-53
2023/01/22 12:07:49;;;;;;;19.15;14.68;;;2.30;99.90;;;;;;5071807;28;20067;-56
2023/01/22 12:10:57;;;;;;;18.63;13.57;;;2.20;99.90;;;;;;5072612;28;20017;-54
2023/01/22 12:13:49;;;;;;;22.13;15.40;;;2.30;99.90;;;;;;5061194;28;20022;-53
2023/01/22 12:17:09;;;;;;;19.35;14.95;;;2.30;99.90;;;;;;5072117;28;20044;-57
2023/01/22 12:20:21;;;;;;;19.60;14.45;;;2.30;99.90;;;;;;5073238;28;20016;-57
2023/01/22 12:23:10;;;;;;;18.80;14.77;;;2.30;99.90;;;;;;5072779;28;20013;-55
2023/01/22 12:26:07;;;;;;;20.60;14.38;;;2.30;99.90;;;;;;5071885;28;20547;-51
2023/01/22 12:29:18;;;;;;;21.50;15.18;;;2.40;99.90;;;;;;5072082;28;20082;-57
2023/01/22 12:32:14;;;;;;;22.52;15.68;;;2.50;99.90;;;;;;5072791;28;20126;-58
2023/01/22 12:35:08;;;;;;;18.88;14.93;;;2.50;99.90;;;;;;5071330;28;20543;-55
2023/01/22 12:38:13;;;;;;;18.77;14.27;;;2.50;99.90;;;;;;5072179;28;20403;-57
2023/01/22 12:41:16;;;;;;;18.43;15.10;;;2.50;99.90;;;;;;5072552;28;20105;-56
2023/01/22 12:44:12;;;;;;;19.45;14.93;;;2.60;99.90;;;;;;5072677;28;20021;-54
2023/01/22 12:47:01;;;;;;;19.67;15.38;;;2.70;99.90;;;;;;5071366;28;20534;-53
2023/01/22 12:49:50;;;;;;;18.88;15.68;;;2.60;99.90;;;;;;5070449;28;20032;-53
2023/01/22 12:52:38;;;;;;;19.30;14.75;;;2.60;99.90;;;;;;5072369;28;20032;-55
2023/01/22 12:55:40;;;;;;;18.77;15.05;;;2.60;99.90;;;;;;5070593;28;20420;-57
2023/01/22 12:58:29;;;;;;;18.67;14.38;;;2.70;99.90;;;;;;5070812;28;20027;-50
2023/01/22 13:01:23;;;;;;;21.08;15.35;;;2.70;99.90;;;;;;5071610;28;20024;-52
2023/01/22 13:04:11;;;;;;;18.90;14.40;;;2.70;99.90;;;;;;5073062;28;20024;-52
2023/01/22 13:07:05;;;;;;;19.45;14.90;;;2.70;99.90;;;;;;5071661;28;20106;-54
2023/01/22 13:09:59;;;;;;;20.33;15.35;;;2.50;99.90;;;;;;5071871;28;20527;-49
2023/01/22 13:12:52;;;;;;;20.38;14.60;;;2.50;99.90;;;;;;5071265;28;20108;-53
2023/01/22 13:15:39;;;;;;;20.23;15.50;;;2.50;99.90;;;;;;5072362;28;20024;-55
2023/01/22 13:18:29;;;;;;;22.75;15.95;;;2.60;99.90;;;;;;5070780;28;20028;-53
2023/01/22 13:21:22;;;;;;;29.67;18.88;;;2.60;99.90;;;;;;5057896;28;20044;-56
2023/01/22 13:24:17;;;;;;;22.75;15.85;;;2.60;99.90;;;;;;5071235;28;20031;-53
2023/01/22 13:27:03;;;;;;;;;;;2.70;99.90;;;;;;5078342;28;20036;-54
2023/01/22 13:29:49;;;;;;;19.05;14.63;;;2.70;99.90;;;;;;5092065;28;19908;-56
2023/01/22 13:32:35;;;;;;;21.17;16.27;;;2.70;99.90;;;;;;5062747;28;20032;-56
2023/01/22 13:35:21;;;;;;;19.15;14.73;;;2.70;99.90;;;;;;5052905;28;20043;-57
2023/01/22 13:38:16;;;;;;;21.85;15.70;;;2.60;99.90;;;;;;5051619;28;20041;-57
2023/01/22 13:41:08;;;;;;;21.77;16.02;;;2.60;99.90;;;;;;5052307;28;20454;-57
2023/01/22 13:43:55;;;;;;;20.45;15.10;;;2.60;99.90;;;;;;5033804;28;20029;-58
2023/01/22 13:46:41;;;;;;;22.13;16.42;;;2.60;99.90;;;;;;5049546;28;20091;-57
2023/01/22 13:49:29;;;;;;;23.10;15.70;;;2.60;99.90;;;;;;5049817;28;20037;-55
2023/01/22 13:52:18;;;;;;;22.92;15.90;;;2.60;99.90;;;;;;5067792;28;20055;-53
2023/01/22 13:55:15;;;;;;;20.27;15.13;;;2.60;99.90;;;;;;5069175;28;20519;-53
2023/01/22 13:58:04;;;;;;;21.33;15.13;;;2.50;99.90;;;;;;5055693;28;20117;-56
2023/01/22 14:00:52;;;;;;;20.50;15.07;;;2.50;99.90;;;;;;5070710;28;20028;-53
2023/01/22 14:03:41;;;;;;;20.17;14.80;;;2.60;99.90;;;;;;5071756;28;20024;-58
2023/01/22 14:06:27;;;;;;;21.25;15.85;;;2.60;99.90;;;;;;5069424;28;20036;-55
2023/01/22 14:09:28;;;;;;;21.27;15.40;;;2.60;99.90;;;;;;5070691;28;20082;-55
2023/01/22 14:12:21;;;;;;;21.42;15.50;;;2.60;99.90;;;;;;5070523;28;20021;-53
2023/01/22 14:15:19;;;;;;;22.25;16.00;;;2.60;99.90;;;;;;5056358;28;20017;-53
2023/01/22 14:18:16;;;;;;;23.80;16.67;;;2.50;99.90;;;;;;5070317;28;20029;-53
2023/01/22 14:21:03;;;;;;;19.98;14.70;;;2.60;99.90;;;;;;5055944;28;20028;-54
2023/01/22 14:23:49;;;;;;;21.65;15.73;;;2.40;99.90;;;;;;5074325;28;20493;-55
2023/01/22 14:26:36;;;;;;;23.63;16.63;;;2.50;99.90;;;;;;5065623;28;20504;-56
2023/01/22 14:29:22;;;;;;;24.58;17.38;;;2.60;99.90;;;;;;5069045;28;20028;-57
2023/01/22 14:32:07;;;;;;;26.50;17.15;;;2.60;99.90;;;;;;5070446;28;20024;-53
2023/01/22 14:34:53;;;;;;;20.48;15.50;;;2.60;99.90;;;;;;5070401;28;20121;-55
2023/01/22 14:37:39;;;;;;;22.52;16.35;;;2.70;99.90;;;;;;5039882;28;20440;-55
2023/01/22 14:40:26;;;;;;;24.30;17.52;;;2.60;99.90;;;;;;5064050;28;20025;-50
2023/01/22 14:43:12;;;;;;;22.85;17.35;;;2.50;99.90;;;;;;5071548;28;20017;-52